Time;durP1;ratioP1;P1;durP2;ratioP2;P2;SDS_P1;SDS_P2;PMS_P1;PMS_P2;Temp;Humidity;BMP_temperature;BMP_pressure;BME280_temperature;BME280_humidity;BME280_pressure;Samples;Min_cycle;Max_cycle;Signal;HPM_P1;HPM_P2
2023/01/09 00:01:46;;;;;;;3.20;0.80;;;7.20;99.90;;;;;;5020077;28;20830;-71
2023/01/09 00:04:12;;;;;;;8.02;1.00;;;7.20;99.90;;;;;;5018377;28;20286;-71
2023/01/09 00:06:39;;;;;;;3.45;1.08;;;7.10;99.90;;;;;;5022168;28;20063;-71
2023/01/09 00:09:05;;;;;;;8.60;1.27;;;7.10;99.90;;;;;;5015104;28;20115;-71
2023/01/09 00:11:31;;;;;;;4.03;0.90;;;7.20;99.90;;;;;;5016766;28;20079;-71
2023/01/09 00:13:57;;;;;;;3.05;0.95;;;7.10;99.90;;;;;;5017503;28;20085;-71
2023/01/09 00:16:23;;;;;;;1.80;1.00;;;7.10;99.90;;;;;;5013497;28;20041;-72
2023/01/09 00:18:49;;;;;;;3.58;0.95;;;7.20;99.90;;;;;;5021298;28;20103;-71
2023/01/09 00:21:15;;;;;;;3.23;0.90;;;7.20;99.90;;;;;;5018765;28;20397;-71
2023/01/09 00:23:41;;;;;;;1.85;0.73;;;7.20;99.90;;;;;;5018983;28;20564;-71
2023/01/09 00:26:11;;;;;;;2.87;1.53;;;7.20;99.90;;;;;;5018733;28;20049;-71
2023/01/09 00:28:39;;;;;;;2.17;0.80;;;7.20;99.90;;;;;;5016987;28;20124;-71
2023/01/09 00:31:06;;;;;;;5.30;1.05;;;7.20;99.90;;;;;;5018651;28;20464;-71
2023/01/09 00:33:51;;;;;;;3.55;0.75;;;7.20;99.90;;;;;;5015791;28;20057;-71
2023/01/09 00:36:17;;;;;;;3.97;0.80;;;7.20;99.90;;;;;;5019519;28;20037;-71
2023/01/09 00:38:42;;;;;;;1.63;0.70;;;7.20;99.90;;;;;;5021077;28;20095;-72
2023/01/09 00:41:14;;;;;;;2.90;0.80;;;7.20;99.90;;;;;;5018396;28;20045;-72
2023/01/09 00:43:46;;;;;;;2.38;0.90;;;7.20;99.90;;;;;;5017690;28;20053;-71
2023/01/09 00:46:13;;;;;;;1.85;1.00;;;7.20;99.90;;;;;;5018185;28;20400;-71
2023/01/09 00:48:42;;;;;;;1.33;0.68;;;7.20;99.90;;;;;;5020007;28;20055;-71
2023/01/09 00:51:08;;;;;;;9.05;0.88;;;7.20;99.90;;;;;;5016116;28;20723;-71
2023/01/09 00:53:36;;;;;;;2.70;0.87;;;7.10;99.90;;;;;;5018088;28;20040;-72
2023/01/09 00:56:07;;;;;;;2.75;0.77;;;7.20;99.90;;;;;;5011959;28;20396;-71
2023/01/09 00:58:33;;;;;;;1.10;0.63;;;7.20;99.90;;;;;;5018480;28;20491;-71
2023/01/09 01:01:00;;;;;;;2.80;0.80;;;7.20;99.90;;;;;;5019291;28;20045;-71
2023/01/09 01:03:26;;;;;;;2.72;0.63;;;7.20;99.90;;;;;;5017684;28;20049;-71
2023/01/09 01:08:35;;;;;;;1.42;0.90;;;7.30;99.90;;;;;;5013623;28;20371;-72
2023/01/09 01:11:08;;;;;;;5.30;1.20;;;7.30;99.90;;;;;;5008247;28;20529;-71
2023/01/09 01:13:33;;;;;;;3.28;0.80;;;7.30;99.90;;;;;;5010399;28;20037;-71
2023/01/09 01:16:02;;;;;;;3.13;1.40;;;7.30;99.90;;;;;;5017690;28;20473;-72
2023/01/09 01:18:27;;;;;;;3.83;1.10;;;7.20;99.90;;;;;;5016784;28;20298;-72
2023/01/09 01:20:53;;;;;;;3.70;1.27;;;7.30;99.90;;;;;;5007463;28;20472;-76
2023/01/09 01:23:19;;;;;;;3.13;1.00;;;7.30;99.90;;;;;;5018430;28;20051;-75
2023/01/09 01:25:44;;;;;;;2.20;0.80;;;7.20;99.90;;;;;;4993168;28;20433;-71
2023/01/09 01:28:10;;;;;;;1.80;0.70;;;7.20;99.90;;;;;;5017332;28;20507;-72
2023/01/09 01:30:41;;;;;;;2.20;1.00;;;7.20;99.90;;;;;;5016762;28;20045;-72
2023/01/09 01:33:07;;;;;;;2.97;1.10;;;7.30;99.90;;;;;;5016843;28;20084;-72
2023/01/09 01:35:33;;;;;;;;;;;7.20;99.90;;;;;;5018420;28;20081;-72
2023/01/09 01:37:59;;;;;;;2.58;0.98;;;7.20;99.90;;;;;;5013972;28;20031;-72
2023/01/09 01:40:25;;;;;;;2.50;1.20;;;7.20;99.90;;;;;;5014246;28;20501;-72
2023/01/09 01:42:53;;;;;;;6.77;0.80;;;7.20;99.90;;;;;;5017379;28;20148;-72
2023/01/09 01:45:20;;;;;;;1.58;0.85;;;7.10;99.90;;;;;;5018774;28;20072;-72
2023/01/09 01:48:11;;;;;;;2.05;1.00;;;7.10;99.90;;;;;;5019674;28;20081;-72
2023/01/09 01:50:46;;;;;;;3.05;1.02;;;7.10;99.90;;;;;;5015528;28;20614;-72
2023/01/09 01:53:35;;;;;;;7.72;1.00;;;7.10;99.90;;;;;;5017107;28;20418;-72
2023/01/09 01:56:15;;;;;;;2.75;1.05;;;7.00;99.90;;;;;;5015382;28;20049;-72
2023/01/09 01:58:52;;;;;;;4.93;1.30;;;7.00;99.90;;;;;;5022338;28;20115;-72
2023/01/09 02:01:19;;;;;;;5.03;1.15;;;7.00;99.90;;;;;;5017431;28;20527;-72
2023/01/09 02:03:45;;;;;;;3.80;1.05;;;7.00;99.90;;;;;;5022425;28;20037;-72
2023/01/09 02:06:11;;;;;;;5.97;1.08;;;6.90;99.90;;;;;;5026145;28;20057;-72
2023/01/09 02:08:37;;;;;;;3.60;1.00;;;6.90;99.90;;;;;;5013973;28;20478;-72
2023/01/09 02:11:04;;;;;;;2.73;1.33;;;6.80;99.90;;;;;;5017272;28;20069;-72
2023/01/09 02:13:31;;;;;;;6.20;0.88;;;6.80;99.90;;;;;;5025100;28;20072;-72
2023/01/09 02:16:25;;;;;;;3.67;0.95;;;6.70;99.90;;;;;;5024205;28;20057;-72
2023/01/09 02:19:12;;;;;;;3.30;0.90;;;6.70;99.90;;;;;;5022146;28;20132;-72
2023/01/09 02:21:58;;;;;;;4.53;1.10;;;6.70;99.90;;;;;;5016417;28;20109;-71
2023/01/09 02:24:35;;;;;;;2.88;0.90;;;6.70;99.90;;;;;;5021960;28;20440;-72
2023/01/09 02:27:06;;;;;;;2.92;1.10;;;6.70;99.90;;;;;;5016657;28;20139;-72
2023/01/09 02:30:09;;;;;;;5.70;1.15;;;6.60;99.90;;;;;;5003937;28;20086;-72
2023/01/09 02:33:14;;;;;;;6.38;1.33;;;6.60;99.90;;;;;;5021204;28;20069;-72
2023/01/09 02:35:56;;;;;;;4.95;0.80;;;6.60;99.90;;;;;;5021061;28;20199;-72
2023/01/09 02:38:37;;;;;;;3.97;1.05;;;6.50;99.90;;;;;;5023347;28;20426;-72
2023/01/09 02:41:15;;;;;;;3.63;0.80;;;6.50;99.90;;;;;;5024573;28;20044;-72
2023/01/09 02:43:40;;;;;;;1.85;0.90;;;6.50;99.90;;;;;;5012481;28;20037;-72
2023/01/09 02:46:20;;;;;;;3.03;0.97;;;6.40;99.90;;;;;;5022514;28;20076;-72
2023/01/09 02:48:51;;;;;;;5.18;1.17;;;6.40;99.90;;;;;;5022109;28;20132;-72
2023/01/09 02:51:26;;;;;;;3.70;1.10;;;6.40;99.90;;;;;;5024439;28;20041;-72
2023/01/09 02:54:07;;;;;;;6.00;1.35;;;6.40;99.90;;;;;;5023174;28;20072;-72
2023/01/09 02:56:41;;;;;;;3.00;0.95;;;6.40;99.90;;;;;;5023034;28;20068;-72
2023/01/09 02:59:25;;;;;;;2.75;0.90;;;6.40;99.90;;;;;;5019495;28;20038;-72
2023/01/09 03:02:28;;;;;;;2.40;1.00;;;6.40;99.90;;;;;;5001052;28;20051;-72
2023/01/09 03:05:18;;;;;;;2.88;1.48;;;6.30;99.90;;;;;;5018679;28;20045;-72
2023/01/09 03:07:59;;;;;;;4.63;0.90;;;6.30;99.90;;;;;;5022610;28;20049;-72
2023/01/09 03:10:45;;;;;;;4.28;1.17;;;6.30;99.90;;;;;;5025478;28;20056;-72
2023/01/09 03:13:15;;;;;;;2.58;1.10;;;6.20;99.90;;;;;;5022612;28;20175;-71
2023/01/09 03:15:45;;;;;;;2.45;0.80;;;6.10;99.90;;;;;;5017550;28;20041;-72
2023/01/09 03:18:14;;;;;;;3.40;1.30;;;6.20;99.90;;;;;;5026279;28;20052;-72
2023/01/09 03:20:41;;;;;;;6.47;1.48;;;6.10;99.90;;;;;;5026786;28;20052;-72
2023/01/09 03:23:07;;;;;;;2.55;0.90;;;6.10;99.90;;;;;;5019765;28;20049;-72
2023/01/09 03:25:33;;;;;;;3.22;1.40;;;6.10;99.90;;;;;;5021846;28;20045;-72
2023/01/09 03:28:04;;;;;;;7.90;2.20;;;6.00;99.90;;;;;;5024910;28;20042;-72
2023/01/09 03:30:32;;;;;;;3.65;1.10;;;6.00;99.90;;;;;;5019684;28;20046;-72
2023/01/09 03:32:58;;;;;;;3.08;1.10;;;6.00;99.90;;;;;;5023842;28;20131;-72
2023/01/09 03:35:24;;;;;;;4.50;0.98;;;6.00;99.90;;;;;;5024271;28;20072;-72
2023/01/09 03:37:50;;;;;;;3.63;1.25;;;5.90;99.90;;;;;;5020290;28;20546;-72
2023/01/09 03:40:17;;;;;;;4.43;0.93;;;6.00;99.90;;;;;;5001528;28;20215;-72
2023/01/09 03:42:43;;;;;;;2.33;1.13;;;5.90;99.90;;;;;;5023164;28;20435;-72
2023/01/09 03:45:09;;;;;;;3.73;1.30;;;5.90;99.90;;;;;;5026990;28;20063;-72
2023/01/09 03:47:35;;;;;;;4.72;1.38;;;5.90;99.90;;;;;;5013612;28;20368;-72
2023/01/09 03:50:00;;;;;;;5.67;2.03;;;5.90;99.90;;;;;;5018179;28;20218;-72
2023/01/09 03:52:26;;;;;;;5.67;1.30;;;5.90;99.90;;;;;;5022924;28;20049;-72
2023/01/09 03:54:52;;;;;;;3.57;1.30;;;5.90;99.90;;;;;;5023146;28;20034;-72
2023/01/09 03:57:17;;;;;;;3.20;1.47;;;5.80;99.90;;;;;;5021879;28;20041;-72
2023/01/09 03:59:43;;;;;;;2.83;1.33;;;5.90;99.90;;;;;;5016445;28;20626;-72
2023/01/09 04:02:09;;;;;;;6.00;1.60;;;5.80;99.90;;;;;;5021116;28;20609;-72
2023/01/09 04:04:34;;;;;;;4.77;1.20;;;5.80;99.90;;;;;;5023495;28;20522;-72
2023/01/09 04:07:00;;;;;;;4.30;1.77;;;5.80;99.90;;;;;;5021885;28;20049;-72
2023/01/09 04:09:25;;;;;;;2.07;1.13;;;5.80;99.90;;;;;;5023099;28;20041;-72
2023/01/09 04:11:51;;;;;;;5.43;1.60;;;5.80;99.90;;;;;;5024204;28;20052;-72
2023/01/09 04:14:17;;;;;;;3.33;1.47;;;5.70;99.90;;;;;;5024442;28;20045;-72
2023/01/09 04:16:42;;;;;;;5.60;1.53;;;5.70;99.90;;;;;;5020213;28;20045;-72
2023/01/09 04:19:08;;;;;;;3.70;2.00;;;5.80;99.90;;;;;;5016976;28;20546;-72
2023/01/09 04:21:33;;;;;;;5.47;1.27;;;5.80;99.90;;;;;;5018881;28;20069;-72
2023/01/09 04:23:59;;;;;;;3.90;1.70;;;5.80;99.90;;;;;;5024404;28;20163;-72
2023/01/09 04:26:25;;;;;;;6.13;1.40;;;5.80;99.90;;;;;;5024010;28;20049;-72
2023/01/09 04:28:50;;;;;;;5.97;1.40;;;5.80;99.90;;;;;;5003183;28;20049;-72
2023/01/09 04:31:16;;;;;;;6.20;1.60;;;5.80;99.90;;;;;;5021915;28;20506;-71
2023/01/09 04:33:42;;;;;;;8.33;2.57;;;5.80;99.90;;;;;;5024140;28;20091;-71
2023/01/09 04:36:08;;;;;;;6.67;1.67;;;5.80;99.90;;;;;;5020995;28;20103;-72
2023/01/09 04:38:33;;;;;;;4.85;1.67;;;5.90;99.90;;;;;;5012058;28;20414;-72
2023/01/09 04:40:59;;;;;;;4.53;1.73;;;5.90;99.90;;;;;;5019523;28;20082;-72
2023/01/09 04:43:24;;;;;;;6.57;1.87;;;5.80;99.90;;;;;;5024366;28;20052;-72
2023/01/09 04:45:50;;;;;;;4.03;1.87;;;5.80;99.90;;;;;;5024089;28;20113;-72
2023/01/09 04:48:16;;;;;;;7.30;2.10;;;5.80;99.90;;;;;;5020712;28;20376;-72
2023/01/09 04:50:41;;;;;;;5.63;2.17;;;5.80;99.90;;;;;;5022202;28;20092;-72
2023/01/09 04:53:07;;;;;;;3.93;1.97;;;5.80;99.90;;;;;;5023389;28;20505;-71
2023/01/09 04:55:33;;;;;;;6.27;2.27;;;5.70;99.90;;;;;;5023867;28;20622;-72
2023/01/09 04:57:59;;;;;;;4.33;1.67;;;5.70;99.90;;;;;;5021545;28;20136;-71
2023/01/09 05:00:24;;;;;;;4.50;2.15;;;5.70;99.90;;;;;;5018525;28;20061;-72
2023/01/09 05:02:50;;;;;;;7.47;2.47;;;5.70;99.90;;;;;;5021241;28;20053;-72
2023/01/09 05:05:16;;;;;;;9.53;2.63;;;5.70;99.90;;;;;;5023294;28;20598;-72
2023/01/09 05:07:41;;;;;;;5.77;2.10;;;5.70;99.90;;;;;;5022455;28;20503;-72
2023/01/09 05:10:09;;;;;;;7.93;2.47;;;5.60;99.90;;;;;;5021241;28;20077;-72
2023/01/09 05:12:35;;;;;;;4.30;2.17;;;5.60;99.90;;;;;;5021904;28;20063;-71
2023/01/09 05:15:01;;;;;;;7.50;2.78;;;5.60;99.90;;;;;;5024290;28;20041;-72
2023/01/09 05:17:27;;;;;;;6.38;2.60;;;5.60;99.90;;;;;;5020992;28;20041;-72
2023/01/09 05:19:53;;;;;;;6.93;2.60;;;5.50;99.90;;;;;;5020712;28;20135;-72
2023/01/09 05:22:18;;;;;;;4.77;2.50;;;5.60;99.90;;;;;;5016232;28;20967;-71
2023/01/09 05:24:44;;;;;;;5.90;2.93;;;5.50;99.90;;;;;;5022877;28;20037;-72
2023/01/09 05:27:10;;;;;;;8.73;3.00;;;5.50;99.90;;;;;;5021965;28;20045;-72
2023/01/09 05:29:36;;;;;;;4.73;2.57;;;5.50;99.90;;;;;;5023866;28;20359;-71
2023/01/09 05:32:01;;;;;;;8.18;3.20;;;5.40;99.90;;;;;;5023839;28;20057;-72
2023/01/09 05:34:27;;;;;;;6.80;3.07;;;5.40;99.90;;;;;;5026263;28;20040;-72
2023/01/09 05:36:53;;;;;;;9.37;3.70;;;5.40;99.90;;;;;;5028053;28;20491;-72
2023/01/09 05:39:18;;;;;;;5.83;3.37;;;5.40;99.90;;;;;;5027805;28;20510;-72
2023/01/09 05:41:44;;;;;;;8.03;3.57;;;5.40;99.90;;;;;;5026217;28;20108;-72
2023/01/09 05:44:10;;;;;;;8.87;3.47;;;5.30;99.90;;;;;;5013599;28;20751;-72
2023/01/09 05:46:35;;;;;;;8.43;3.87;;;5.30;99.90;;;;;;5014014;28;20081;-72
2023/01/09 05:49:01;;;;;;;8.53;3.63;;;5.30;99.90;;;;;;5041307;22;20080;-69
2023/01/09 05:51:27;;;;;;;7.57;4.30;;;5.40;99.90;;;;;;5047386;28;20540;-68
2023/01/09 05:53:52;;;;;;;11.20;5.03;;;5.30;99.90;;;;;;5043136;28;20419;-69
2023/01/09 05:56:18;;;;;;;8.23;4.23;;;5.30;99.90;;;;;;5018712;28;20063;-68
2023/01/09 05:58:43;;;;;;;10.97;4.40;;;5.40;99.90;;;;;;5027474;28;20102;-68
2023/01/09 06:01:09;;;;;;;13.97;5.13;;;5.40;99.90;;;;;;5027783;28;20037;-68
2023/01/09 06:03:35;;;;;;;11.77;4.60;;;5.40;99.90;;;;;;5011920;28;20050;-69
2023/01/09 06:06:00;;;;;;;12.47;5.87;;;5.40;99.90;;;;;;5027391;28;20117;-69
2023/01/09 06:08:26;;;;;;;8.80;5.40;;;5.50;99.90;;;;;;5028202;28;20064;-68
2023/01/09 06:10:51;;;;;;;12.77;6.00;;;5.50;99.90;;;;;;5027831;28;20045;-68
2023/01/09 06:13:17;;;;;;;10.70;5.40;;;5.50;99.90;;;;;;5012923;28;20431;-68
2023/01/09 06:15:43;;;;;;;7.13;4.93;;;5.50;99.90;;;;;;5027869;28;20052;-69
2023/01/09 06:18:08;;;;;;;14.23;5.93;;;5.50;99.90;;;;;;5006412;28;20049;-68
2023/01/09 06:20:34;;;;;;;13.47;5.87;;;5.60;99.90;;;;;;5012400;28;20037;-69
2023/01/09 06:23:00;;;;;;;9.77;5.53;;;5.50;99.90;;;;;;5024395;28;20395;-69
2023/01/09 06:25:25;;;;;;;10.80;4.93;;;5.60;99.90;;;;;;5027145;28;20471;-69
2023/01/09 06:27:51;;;;;;;12.23;5.40;;;5.60;99.90;;;;;;5009014;28;20044;-69
2023/01/09 06:30:18;;;;;;;13.00;5.87;;;5.60;99.90;;;;;;5009333;28;20049;-68
2023/01/09 06:32:44;;;;;;;10.35;5.63;;;5.60;99.90;;;;;;5024316;28;20132;-69
2023/01/09 06:35:10;;;;;;;12.03;6.17;;;5.60;99.90;;;;;;5033380;28;20472;-69
2023/01/09 06:37:36;;;;;;;;;;;5.60;99.90;;;;;;5030356;28;20037;-69
2023/01/09 06:40:01;;;;;;;10.45;5.93;;;5.60;99.90;;;;;;5025486;28;20380;-69
2023/01/09 06:42:27;;;;;;;13.87;6.17;;;5.60;99.90;;;;;;5008916;28;20389;-69
2023/01/09 06:44:53;;;;;;;10.30;5.70;;;5.60;99.90;;;;;;4988824;28;20037;-69
2023/01/09 06:47:18;;;;;;;10.83;5.53;;;5.60;99.90;;;;;;5018265;28;20131;-69
2023/01/09 06:49:44;;;;;;;11.20;5.67;;;5.60;99.90;;;;;;5016765;28;20388;-68
2023/01/09 06:52:09;;;;;;;9.67;5.90;;;5.70;99.90;;;;;;5026018;28;20045;-69
2023/01/09 06:54:35;;;;;;;11.60;5.50;;;5.70;99.90;;;;;;5011041;28;20088;-69
2023/01/09 06:57:01;;;;;;;12.90;5.90;;;5.70;99.90;;;;;;5029528;28;20136;-69
2023/01/09 06:59:26;;;;;;;12.73;5.33;;;5.70;99.90;;;;;;5019629;28;20029;-69
2023/01/09 07:01:52;;;;;;;12.97;6.43;;;5.70;99.90;;;;;;5022521;28;20033;-69
2023/01/09 07:04:20;;;;;;;12.83;5.63;;;5.70;99.90;;;;;;5004114;28;20046;-69
2023/01/09 07:06:47;;;;;;;11.23;5.10;;;5.70;99.90;;;;;;5024115;28;20041;-69
2023/01/09 07:09:13;;;;;;;13.57;5.43;;;5.70;99.90;;;;;;5024302;28;20034;-70
2023/01/09 07:11:39;;;;;;;11.07;4.85;;;5.70;99.90;;;;;;5018812;28;20048;-69
2023/01/09 07:14:05;;;;;;;10.93;5.05;;;5.70;99.90;;;;;;5027705;28;20382;-69
2023/01/09 07:16:32;;;;;;;11.27;5.20;;;5.70;99.90;;;;;;5005856;28;20435;-69
2023/01/09 07:18:58;;;;;;;10.60;5.13;;;5.60;99.90;;;;;;5024002;28;20588;-69
2023/01/09 07:21:24;;;;;;;11.10;5.88;;;5.60;99.90;;;;;;5002292;28;20495;-69
2023/01/09 07:23:49;;;;;;;12.13;4.80;;;5.60;99.90;;;;;;5011822;28;20049;-69
2023/01/09 07:26:15;;;;;;;12.37;5.03;;;5.60;99.90;;;;;;4995348;28;20044;-69
2023/01/09 07:28:41;;;;;;;10.67;4.50;;;5.60;99.90;;;;;;5006298;28;20091;-69
2023/01/09 07:31:06;;;;;;;8.57;4.23;;;5.60;99.90;;;;;;4991494;28;20045;-69
2023/01/09 07:33:33;;;;;;;8.40;4.10;;;5.60;99.90;;;;;;5024139;28;20984;-69
2023/01/09 07:35:59;;;;;;;11.30;4.68;;;5.60;99.90;;;;;;5019294;28;20068;-69
2023/01/09 07:38:25;;;;;;;7.33;3.67;;;5.60;99.90;;;;;;5016294;28;20065;-69
2023/01/09 07:40:51;;;;;;;8.93;3.83;;;5.60;99.90;;;;;;5008235;28;20034;-68
2023/01/09 07:43:16;;;;;;;8.43;3.93;;;5.60;99.90;;;;;;5023874;28;20046;-69
2023/01/09 07:45:42;;;;;;;8.70;4.03;;;5.60;99.90;;;;;;5024851;28;20051;-69
2023/01/09 07:48:08;;;;;;;7.57;3.57;;;5.60;99.90;;;;;;5014878;28;20374;-68
2023/01/09 07:50:33;;;;;;;7.87;3.80;;;5.60;99.90;;;;;;5025672;28;20041;-69
2023/01/09 07:52:59;;;;;;;8.20;4.13;;;5.60;99.90;;;;;;5013354;28;20242;-69
2023/01/09 07:55:24;;;;;;;9.67;4.30;;;5.60;99.90;;;;;;5008107;28;20128;-69
2023/01/09 07:57:53;;;;;;;8.37;3.70;;;5.60;99.90;;;;;;5022273;28;20211;-69
2023/01/09 08:00:20;;;;;;;9.02;4.00;;;5.60;99.90;;;;;;5006349;28;20054;-69
2023/01/09 08:02:50;;;;;;;9.43;3.65;;;5.70;99.90;;;;;;5005374;28;20037;-70
2023/01/09 08:05:15;;;;;;;8.95;3.83;;;5.70;99.90;;;;;;4999801;28;20483;-69
2023/01/09 08:07:42;;;;;;;10.37;3.87;;;5.70;99.90;;;;;;5027996;28;20140;-69
2023/01/09 08:10:09;;;;;;;7.30;3.63;;;5.70;99.90;;;;;;5000226;28;20038;-69
2023/01/09 08:12:35;;;;;;;7.25;3.78;;;5.70;99.90;;;;;;5008825;28;20054;-69
2023/01/09 08:15:00;;;;;;;8.30;3.47;;;5.70;99.90;;;;;;4987453;28;20475;-69
2023/01/09 08:17:26;;;;;;;11.20;3.57;;;5.70;99.90;;;;;;5017518;28;20037;-69
2023/01/09 08:19:52;;;;;;;11.60;3.70;;;5.70;99.90;;;;;;5004284;28;20686;-69
2023/01/09 08:22:18;;;;;;;6.97;3.53;;;5.80;99.90;;;;;;5007535;28;20037;-69
2023/01/09 08:24:43;;;;;;;8.63;3.40;;;5.80;99.90;;;;;;5022604;28;20149;-69
2023/01/09 08:27:09;;;;;;;7.10;3.63;;;5.80;99.90;;;;;;5008563;28;20561;-69
2023/01/09 08:29:35;;;;;;;8.10;3.67;;;5.80;99.90;;;;;;5025738;28;20049;-69
2023/01/09 08:32:00;;;;;;;8.07;4.03;;;5.80;99.90;;;;;;5005671;28;20060;-69
2023/01/09 08:34:26;;;;;;;9.30;3.87;;;5.80;99.90;;;;;;5022341;28;20107;-69
2023/01/09 08:36:52;;;;;;;7.30;3.63;;;5.80;99.90;;;;;;5026910;28;20167;-69
2023/01/09 08:39:18;;;;;;;7.43;3.78;;;5.80;99.90;;;;;;5031097;28;20044;-69
2023/01/09 08:47:15;;;;;;;7.40;3.20;;;5.90;99.90;;;;;;5026000;28;20049;-69
2023/01/09 08:49:41;;;;;;;7.97;3.33;;;5.90;99.90;;;;;;5015960;28;20045;-69
2023/01/09 08:52:06;;;;;;;10.57;3.50;;;5.90;99.90;;;;;;5000120;28;20041;-69
2023/01/09 08:54:34;;;;;;;11.43;3.90;;;6.00;99.90;;;;;;5007923;28;20036;-69
2023/01/09 08:56:59;;;;;;;7.22;3.83;;;6.00;99.90;;;;;;5012602;28;20362;-69
2023/01/09 08:59:25;;;;;;;6.53;3.40;;;6.00;99.90;;;;;;5024959;28;20530;-69
2023/01/09 09:01:51;;;;;;;7.57;3.30;;;6.00;99.90;;;;;;5015244;28;20350;-69
2023/01/09 09:04:16;;;;;;;9.37;3.50;;;6.10;99.90;;;;;;5008992;28;20041;-69
2023/01/09 09:06:42;;;;;;;6.47;3.40;;;6.10;99.90;;;;;;5007582;28;20049;-69
2023/01/09 09:09:07;;;;;;;4.90;2.60;;;6.10;99.90;;;;;;5003971;28;20052;-69
2023/01/09 09:11:34;;;;;;;4.93;2.90;;;6.20;99.90;;;;;;5006873;28;20535;-71
2023/01/09 09:13:59;;;;;;;8.65;3.28;;;6.20;99.90;;;;;;5021514;28;20037;-71
2023/01/09 09:16:26;;;;;;;9.03;3.33;;;6.20;99.90;;;;;;5006990;28;20045;-71
2023/01/09 09:18:51;;;;;;;6.55;2.83;;;6.20;99.90;;;;;;5008528;28;20096;-68
2023/01/09 09:21:17;;;;;;;5.73;2.67;;;6.20;99.90;;;;;;5007082;28;20084;-69
2023/01/09 09:23:43;;;;;;;6.20;2.72;;;6.30;99.90;;;;;;5017714;28;20060;-68
2023/01/09 09:26:09;;;;;;;8.97;3.23;;;6.30;99.90;;;;;;5005663;28;20167;-68
2023/01/09 09:28:35;;;;;;;5.03;2.70;;;6.30;99.90;;;;;;5026643;28;20443;-68
2023/01/09 09:31:03;;;;;;;6.57;2.67;;;6.40;99.90;;;;;;5019042;28;20136;-69
2023/01/09 09:33:29;;;;;;;5.53;2.38;;;6.40;99.90;;;;;;5025172;28;20554;-69
2023/01/09 09:35:57;;;;;;;5.47;2.40;;;6.50;99.90;;;;;;5019273;28;20125;-68
2023/01/09 09:38:23;;;;;;;5.32;2.47;;;6.50;99.90;;;;;;5004809;28;20072;-69
2023/01/09 09:44:42;;;;;;;5.00;2.67;;;6.50;99.90;;;;;;5001445;28;20053;-68
2023/01/09 09:47:22;;;;;;;4.25;2.00;;;6.60;99.90;;;;;;4996846;28;20533;-69
2023/01/09 09:50:05;;;;;;;4.47;2.00;;;6.60;99.90;;;;;;5007154;28;20379;-68
2023/01/09 09:52:36;;;;;;;6.63;2.70;;;6.60;99.90;;;;;;5025553;28;20491;-69
2023/01/09 09:55:23;;;;;;;3.75;2.03;;;6.70;99.90;;;;;;5025869;28;20475;-68
2023/01/09 09:57:50;;;;;;;6.60;2.17;;;6.70;99.90;;;;;;5023178;28;20049;-69
2023/01/09 10:00:20;;;;;;;6.07;2.30;;;6.70;99.90;;;;;;4997227;28;20046;-69
2023/01/09 10:02:53;;;;;;;5.10;1.98;;;6.70;99.90;;;;;;5015842;28;20124;-73
2023/01/09 10:05:33;;;;;;;5.03;2.78;;;6.80;99.90;;;;;;4975970;28;20257;-68
2023/01/09 10:08:05;;;;;;;6.53;2.65;;;6.80;99.90;;;;;;5026012;28;20084;-68
2023/01/09 10:10:45;;;;;;;4.93;2.53;;;6.80;99.90;;;;;;4996034;28;20053;-69
2023/01/09 10:16:07;;;;;;;5.25;2.20;;;6.90;99.90;;;;;;5007735;28;20051;-68
2023/01/09 10:19:18;;;;;;;5.65;1.67;;;6.90;99.90;;;;;;5003941;28;20167;-68
2023/01/09 10:21:43;;;;;;;3.70;1.90;;;6.90;99.90;;;;;;5007031;28;20160;-68
2023/01/09 10:24:37;;;;;;;4.23;2.57;;;6.90;99.90;;;;;;5026138;28;20129;-68
2023/01/09 10:27:20;;;;;;;8.38;1.98;;;7.00;99.90;;;;;;5008471;28;20083;-68
2023/01/09 10:30:00;;;;;;;6.45;2.05;;;7.00;99.90;;;;;;5030263;28;20048;-68
2023/01/09 10:32:37;;;;;;;8.85;2.40;;;7.00;99.90;;;;;;5026461;28;20132;-68
2023/01/09 10:35:18;;;;;;;;;;;7.00;99.90;;;;;;5011391;28;20068;-68
2023/01/09 10:37:46;;;;;;;7.85;2.28;;;7.10;99.90;;;;;;5018084;28;19925;-68
2023/01/09 10:40:19;;;;;;;6.32;1.88;;;7.10;99.90;;;;;;4990284;28;20057;-68
2023/01/09 10:42:53;;;;;;;4.45;2.10;;;7.10;99.90;;;;;;5023706;28;20421;-68
2023/01/09 10:45:25;;;;;;;4.85;2.28;;;7.00;99.90;;;;;;4997108;28;20114;-68
2023/01/09 10:47:59;;;;;;;4.40;1.90;;;7.10;99.90;;;;;;5023511;28;20141;-68
2023/01/09 10:50:36;;;;;;;4.43;2.17;;;7.10;99.90;;;;;;5024455;28;20072;-68
2023/01/09 10:53:19;;;;;;;4.47;2.70;;;7.10;99.90;;;;;;5002571;28;20574;-68
2023/01/09 10:55:47;;;;;;;6.03;2.40;;;7.10;99.90;;;;;;5012232;28;21353;-68
2023/01/09 10:58:18;;;;;;;6.60;1.98;;;7.00;99.90;;;;;;5026310;28;20102;-68
2023/01/09 11:00:44;;;;;;;4.68;2.15;;;7.10;99.90;;;;;;5010533;28;20108;-68
2023/01/09 11:03:12;;;;;;;3.97;2.47;;;7.00;99.90;;;;;;5022152;28;20050;-68
2023/01/09 11:05:38;;;;;;;4.53;2.17;;;7.00;99.90;;;;;;5000390;28;20364;-68
2023/01/09 11:08:28;;;;;;;3.67;2.45;;;7.00;99.90;;;;;;4995993;28;20054;-68
2023/01/09 11:10:56;;;;;;;6.60;2.22;;;7.00;99.90;;;;;;4988094;28;20049;-68
2023/01/09 11:13:30;;;;;;;5.93;2.00;;;7.00;99.90;;;;;;4986871;28;20034;-69
2023/01/09 11:15:58;;;;;;;4.65;2.42;;;7.00;99.90;;;;;;5004882;28;20558;-69
2023/01/09 11:18:24;;;;;;;5.18;2.28;;;7.00;99.90;;;;;;5004771;28;20037;-69
2023/01/09 11:20:51;;;;;;;6.57;2.33;;;7.00;99.90;;;;;;5006493;28;20112;-69
2023/01/09 11:23:29;;;;;;;6.03;2.40;;;7.10;99.90;;;;;;5020967;28;20057;-69
2023/01/09 11:25:58;;;;;;;7.00;2.97;;;7.00;99.90;;;;;;5019345;28;20041;-68
2023/01/09 11:28:24;;;;;;;5.57;2.65;;;7.10;99.90;;;;;;5004885;28;20140;-68
2023/01/09 11:31:01;;;;;;;8.85;2.10;;;7.10;99.90;;;;;;5024911;28;20042;-69
2023/01/09 11:33:30;;;;;;;6.38;3.00;;;7.10;99.90;;;;;;5021906;28;20507;-69
2023/01/09 11:36:02;;;;;;;4.55;2.50;;;7.10;99.90;;;;;;5010648;28;20478;-69
2023/01/09 11:38:29;;;;;;;4.57;2.58;;;7.10;99.90;;;;;;5007219;28;20041;-68
2023/01/09 11:41:03;;;;;;;6.53;2.85;;;7.00;99.90;;;;;;5003548;28;20069;-69
2023/01/09 11:43:33;;;;;;;4.30;2.67;;;7.10;99.90;;;;;;5009682;28;20072;-69
2023/01/09 11:46:02;;;;;;;4.95;2.60;;;7.10;99.90;;;;;;5026692;28;20064;-69
2023/01/09 11:48:38;;;;;;;6.70;3.35;;;7.00;99.90;;;;;;5022029;28;20056;-69
2023/01/09 11:51:19;;;;;;;5.45;2.85;;;7.10;99.90;;;;;;5006900;22;20050;-73
2023/01/09 11:53:53;;;;;;;6.50;3.08;;;7.00;99.90;;;;;;4997874;28;20408;-71
2023/01/09 11:56:19;;;;;;;4.35;2.78;;;7.10;99.90;;;;;;5011288;28;20041;-71
2023/01/09 11:58:45;;;;;;;6.60;3.63;;;7.10;99.90;;;;;;5012847;28;20451;-71
2023/01/09 12:01:29;;;;;;;6.13;3.40;;;7.10;99.90;;;;;;5014912;28;20132;-72
2023/01/09 12:04:18;;;;;;;8.38;3.58;;;7.10;99.90;;;;;;5011713;28;20068;-71
2023/01/09 12:06:59;;;;;;;8.82;3.70;;;7.10;99.90;;;;;;5001623;28;20054;-73
2023/01/09 12:09:44;;;;;;;6.57;2.70;;;7.10;99.90;;;;;;5017018;28;20045;-72
2023/01/09 12:12:37;;;;;;;8.93;3.80;;;7.10;99.90;;;;;;5016951;28;20160;-72
2023/01/09 12:15:14;;;;;;;6.32;3.55;;;7.10;99.90;;;;;;5007163;28;20042;-71
2023/01/09 12:18:22;;;;;;;6.90;3.55;;;7.20;99.90;;;;;;5017664;28;20057;-72
2023/01/09 12:21:16;;;;;;;13.07;4.15;;;7.20;99.90;;;;;;4980006;28;20048;-71
2023/01/09 12:23:54;;;;;;;8.27;3.58;;;7.20;99.90;;;;;;5020399;28;20056;-71
2023/01/09 12:26:33;;;;;;;6.70;3.67;;;7.20;99.90;;;;;;5014425;28;20042;-71
2023/01/09 12:29:32;;;;;;;9.43;4.38;;;7.20;99.90;;;;;;5013823;28;20053;-70
2023/01/09 12:32:36;;;;;;;5.60;3.70;;;7.30;99.90;;;;;;5016009;28;20033;-71
2023/01/09 12:35:35;;;;;;;7.65;3.65;;;7.30;99.90;;;;;;5002828;28;20081;-71
2023/01/09 12:38:36;;;;;;;9.38;4.10;;;7.30;99.90;;;;;;5013833;28;20664;-71
2023/01/09 12:41:16;;;;;;;9.57;3.83;;;7.30;99.90;;;;;;5009844;28;20148;-71
2023/01/09 12:44:10;;;;;;;8.25;3.83;;;7.30;99.90;;;;;;5021282;28;20030;-71
2023/01/09 12:46:46;;;;;;;7.30;3.70;;;7.40;99.90;;;;;;5021155;28;20038;-72
2023/01/09 12:49:24;;;;;;;6.93;3.58;;;7.40;99.90;;;;;;5013075;28;20531;-71
2023/01/09 12:52:21;;;;;;;8.30;3.88;;;7.50;99.90;;;;;;5024471;28;20072;-71
2023/01/09 12:55:07;;;;;;;8.35;4.07;;;7.50;99.90;;;;;;5014699;28;20041;-71
2023/01/09 12:57:37;;;;;;;7.25;4.32;;;7.50;99.90;;;;;;5016423;28;20054;-71
2023/01/09 13:00:05;;;;;;;8.27;3.40;;;7.50;99.90;;;;;;5012363;28;20090;-71
2023/01/09 13:02:42;;;;;;;9.50;5.00;;;7.60;99.90;;;;;;5009014;28;20434;-71
2023/01/09 13:05:09;;;;;;;7.45;3.97;;;7.60;99.90;;;;;;5018245;28;20499;-71
2023/01/09 13:07:42;;;;;;;11.02;4.95;;;7.60;99.90;;;;;;5014126;28;20085;-71
2023/01/09 13:10:19;;;;;;;8.05;4.30;;;7.70;99.90;;;;;;5019598;28;20041;-71
2023/01/09 13:12:47;;;;;;;9.18;3.92;;;7.80;99.90;;;;;;5018586;28;20045;-71
2023/01/09 13:15:34;;;;;;;10.80;4.18;;;7.90;99.90;;;;;;5016089;28;20157;-71
2023/01/09 13:18:21;;;;;;;12.85;4.07;;;8.00;99.90;;;;;;5013710;28;20065;-71
2023/01/09 13:20:52;;;;;;;9.63;4.05;;;8.10;99.90;;;;;;5016377;28;20311;-72
2023/01/09 13:23:30;;;;;;;7.85;3.92;;;8.10;99.90;;;;;;5018807;28;20064;-71
2023/01/09 13:26:01;;;;;;;7.75;3.53;;;8.20;99.90;;;;;;5013037;28;20045;-71
2023/01/09 13:28:35;;;;;;;8.93;3.75;;;8.20;99.90;;;;;;5013381;28;20135;-71